createdAt,value
2022-11-26T00:00:56.428Z,90.01
2022-11-26T00:03:23.977Z,90.32
2022-11-26T00:05:55.005Z,90.08
2022-11-26T00:08:35.008Z,90.60
2022-11-26T00:11:03.028Z,90.65
2022-11-26T00:13:31.399Z,90.61
2022-11-26T00:15:58.932Z,90.55
2022-11-26T00:18:29.152Z,90.37
2022-11-26T00:21:00.666Z,90.59
2022-11-26T00:23:28.691Z,90.35
2022-11-26T00:26:02.581Z,89.84
2022-11-26T00:28:35.431Z,89.87
2022-11-26T00:31:06.503Z,89.29
2022-11-26T00:33:34.083Z,88.79
2022-11-26T00:36:15.946Z,87.99
2022-11-26T00:38:43.775Z,88.31
2022-11-26T00:41:19.225Z,88.22
2022-11-26T00:43:46.871Z,88.08
2022-11-26T00:46:19.991Z,87.71
2022-11-26T00:48:47.944Z,87.64
2022-11-26T00:51:18.223Z,86.93
2022-11-26T00:53:46.735Z,86.14
2022-11-26T00:56:18.234Z,85.84
2022-11-26T00:58:48.099Z,86.36
2022-11-26T01:01:21.484Z,86.62
2022-11-26T01:03:49.357Z,86.38
2022-11-26T01:06:26.222Z,86.52
2022-11-26T01:08:53.644Z,86.64
2022-11-26T01:11:23.152Z,87.18
2022-11-26T01:13:52.923Z,87.16
2022-11-26T01:16:29.416Z,87.32
2022-11-26T01:18:59.031Z,87.23
2022-11-26T01:21:28.630Z,86.77
2022-11-26T01:23:56.781Z,86.67
2022-11-26T01:26:31.811Z,86.24
2022-11-26T01:28:59.265Z,86.79
2022-11-26T01:31:28.614Z,86.40
2022-11-26T01:33:56.856Z,86.75
2022-11-26T01:36:32.948Z,86.47
2022-11-26T01:39:04.562Z,86.61
2022-11-26T01:41:34.914Z,87.25
2022-11-26T01:44:05.725Z,86.98
2022-11-26T01:46:42.020Z,87.59
2022-11-26T01:49:29.815Z,87.46
2022-11-26T01:52:21.651Z,87.53
2022-11-26T01:54:50.357Z,87.44
2022-11-26T01:57:22.039Z,87.55
2022-11-26T01:59:52.929Z,86.84
2022-11-26T02:02:23.435Z,86.08
2022-11-26T02:04:59.743Z,86.11
2022-11-26T02:07:27.216Z,85.74
2022-11-26T02:09:54.980Z,85.47
2022-11-26T02:12:22.655Z,85.73
2022-11-26T02:14:50.066Z,85.56
2022-11-26T02:17:36.886Z,85.62
2022-11-26T02:20:35.232Z,85.49
2022-11-26T02:23:18.612Z,85.88
2022-11-26T02:26:07.617Z,85.73
2022-11-26T02:29:02.375Z,86.04
2022-11-26T02:32:00.452Z,85.92
2022-11-26T02:34:48.749Z,85.89
2022-11-26T02:37:30.685Z,85.52
2022-11-26T02:39:58.450Z,85.17
2022-11-26T02:42:34.168Z,84.50
2022-11-26T02:45:26.446Z,85.58
2022-11-26T02:47:57.680Z,85.09
2022-11-26T02:50:27.885Z,85.09
2022-11-26T02:52:58.485Z,85.11
2022-11-26T02:55:30.546Z,84.60
2022-11-26T02:57:58.283Z,84.52
2022-11-26T03:00:26.258Z,85.09
2022-11-26T03:03:04.032Z,84.85
2022-11-26T03:05:34.868Z,85.03
2022-11-26T03:08:04.038Z,84.68
2022-11-26T03:10:32.531Z,84.92
2022-11-26T03:13:00.155Z,85.32
2022-11-26T03:15:28.368Z,85.43
2022-11-26T03:17:55.768Z,85.98
2022-11-26T03:20:23.187Z,85.69
2022-11-26T03:22:50.819Z,85.49
2022-11-26T03:25:18.512Z,84.38
2022-11-26T03:27:46.028Z,84.77
2022-11-26T03:30:13.751Z,84.72
2022-11-26T03:32:41.346Z,84.24
2022-11-26T03:35:09.191Z,84.58
2022-11-26T03:37:37.085Z,85.00
2022-11-26T03:40:05.255Z,85.16
2022-11-26T03:42:33.009Z,84.77
2022-11-26T03:45:00.423Z,84.44
2022-11-26T03:47:28.899Z,84.58
2022-11-26T03:49:56.875Z,84.35
2022-11-26T03:52:24.400Z,84.19
2022-11-26T03:54:51.935Z,83.92
2022-11-26T03:57:20.235Z,83.95
2022-11-26T03:59:47.834Z,84.15
2022-11-26T04:02:15.696Z,83.24
2022-11-26T04:04:43.148Z,83.30
2022-11-26T04:07:10.731Z,83.17
2022-11-26T04:09:38.230Z,82.94
2022-11-26T04:12:11.424Z,83.31
2022-11-26T04:14:44.883Z,83.98
2022-11-26T04:17:12.595Z,83.83
2022-11-26T04:19:40.115Z,84.32
2022-11-26T04:22:07.608Z,83.95
2022-11-26T04:24:35.060Z,84.48
2022-11-26T04:27:02.603Z,84.46
2022-11-26T04:29:30.128Z,85.42
2022-11-26T04:31:57.646Z,85.09
2022-11-26T04:34:25.161Z,85.36
2022-11-26T04:36:52.575Z,85.66
2022-11-26T04:39:20.139Z,85.10
2022-11-26T04:41:47.737Z,84.95
2022-11-26T04:44:15.271Z,84.39
2022-11-26T04:46:42.765Z,83.31
2022-11-26T04:49:10.255Z,82.10
2022-11-26T04:51:37.684Z,82.59
2022-11-26T04:54:09.931Z,81.64
2022-11-26T04:56:40.625Z,81.89
2022-11-26T04:59:08.208Z,81.58
2022-11-26T05:01:35.997Z,80.71
2022-11-26T05:04:03.925Z,81.85
2022-11-26T05:06:31.428Z,81.05
2022-11-26T05:08:59.530Z,80.78
2022-11-26T05:11:26.999Z,80.21
2022-11-26T05:13:54.492Z,80.18
2022-11-26T05:16:22.061Z,80.72
2022-11-26T05:18:49.801Z,80.25
2022-11-26T05:21:17.346Z,79.50
2022-11-26T05:23:44.737Z,79.92
2022-11-26T05:26:12.191Z,79.84
2022-11-26T05:28:39.698Z,80.02
2022-11-26T05:31:07.160Z,81.62
2022-11-26T05:33:34.799Z,81.64
2022-11-26T05:36:02.223Z,81.75
2022-11-26T05:38:29.660Z,80.76
2022-11-26T05:40:57.176Z,80.60
2022-11-26T05:43:24.710Z,80.85
2022-11-26T05:45:52.176Z,80.98
2022-11-26T05:48:19.702Z,80.53
2022-11-26T05:50:51.545Z,80.52
2022-11-26T05:53:21.854Z,80.47
2022-11-26T05:55:49.236Z,80.30
2022-11-26T05:58:16.639Z,80.34
2022-11-26T06:00:44.124Z,80.54
2022-11-26T06:03:13.519Z,80.95
2022-11-26T06:05:44.852Z,81.14
2022-11-26T06:08:12.273Z,81.34
2022-11-26T06:10:42.463Z,81.44
2022-11-26T06:13:10.245Z,81.51
2022-11-26T06:15:37.743Z,81.60
2022-11-26T06:18:05.237Z,81.06
2022-11-26T06:20:32.697Z,81.85
2022-11-26T06:23:00.373Z,81.63
2022-11-26T06:25:27.787Z,80.86
2022-11-26T06:27:55.964Z,80.87
2022-11-26T06:30:23.852Z,81.00
2022-11-26T06:32:51.316Z,81.06
2022-11-26T06:35:18.820Z,81.39
2022-11-26T06:37:46.260Z,81.62
2022-11-26T06:40:17.724Z,82.33
2022-11-26T06:42:52.229Z,82.61
2022-11-26T06:45:23.796Z,82.35
2022-11-26T06:47:51.684Z,81.74
2022-11-26T06:50:21.410Z,82.34
2022-11-26T06:52:53.366Z,82.78
2022-11-26T06:55:21.561Z,82.82
2022-11-26T06:57:51.361Z,82.06
2022-11-26T07:00:20.042Z,81.33
2022-11-26T07:02:47.628Z,81.20
2022-11-26T07:05:15.254Z,81.77
2022-11-26T07:07:42.796Z,82.62
2022-11-26T07:10:10.716Z,82.37
2022-11-26T07:12:38.385Z,83.25
2022-11-26T07:15:06.226Z,83.42
2022-11-26T07:17:33.720Z,83.40
2022-11-26T07:20:01.354Z,83.21
2022-11-26T07:22:28.894Z,83.90
2022-11-26T07:24:56.462Z,84.15
2022-11-26T07:27:26.011Z,83.09
2022-11-26T07:29:53.487Z,84.80
2022-11-26T07:32:21.111Z,84.44
2022-11-26T07:34:48.640Z,85.00
2022-11-26T07:37:16.819Z,84.65
2022-11-26T07:39:44.300Z,84.64
2022-11-26T07:42:11.750Z,83.78
2022-11-26T07:44:39.589Z,84.29
2022-11-26T07:47:07.196Z,84.99
2022-11-26T07:49:35.348Z,84.78
2022-11-26T07:52:03.220Z,85.16
2022-11-26T07:54:30.640Z,85.45
2022-11-26T07:56:58.105Z,84.59
2022-11-26T07:59:25.601Z,84.62
2022-11-26T08:01:53.583Z,83.82
2022-11-26T08:04:21.181Z,83.17
2022-11-26T08:06:48.656Z,83.58
2022-11-26T08:09:16.200Z,83.63
2022-11-26T08:11:43.707Z,83.70
2022-11-26T08:14:12.523Z,83.18
2022-11-26T08:16:41.025Z,82.35
2022-11-26T08:19:13.304Z,81.90
2022-11-26T08:21:41.064Z,81.88
2022-11-26T08:24:14.398Z,81.54
2022-11-26T08:26:44.528Z,80.88
2022-11-26T08:29:13.421Z,80.31
2022-11-26T08:31:45.600Z,80.43
2022-11-26T08:34:15.279Z,79.67
2022-11-26T08:36:43.810Z,79.92
2022-11-26T08:39:18.907Z,79.79
2022-11-26T08:41:52.089Z,79.79
2022-11-26T08:44:21.280Z,79.66
2022-11-26T08:46:49.340Z,79.47
2022-11-26T08:49:17.134Z,79.06
2022-11-26T08:51:44.877Z,79.43
2022-11-26T08:54:12.545Z,79.30
2022-11-26T08:56:40.177Z,78.93
2022-11-26T08:59:07.619Z,78.42
2022-11-26T09:01:35.202Z,78.14
2022-11-26T09:04:04.463Z,77.46
2022-11-26T09:06:33.739Z,77.84
2022-11-26T09:09:14.358Z,78.26
2022-11-26T09:11:56.486Z,78.22
2022-11-26T09:14:27.297Z,77.71
2022-11-26T09:16:56.302Z,76.88
2022-11-26T09:19:24.786Z,76.98
2022-11-26T09:21:52.298Z,76.43
2022-11-26T09:24:20.228Z,76.35
2022-11-26T09:26:50.341Z,76.83
2022-11-26T09:29:22.534Z,77.59
2022-11-26T09:34:39.946Z,77.48
2022-11-26T09:37:07.835Z,77.46
2022-11-26T09:39:35.531Z,77.14
2022-11-26T09:42:29.263Z,76.99
2022-11-26T09:45:21.032Z,77.75
2022-11-26T09:47:53.633Z,77.99
2022-11-26T09:50:28.043Z,77.51
2022-11-26T09:53:01.373Z,77.23
2022-11-26T09:55:35.167Z,76.72
2022-11-26T09:58:26.563Z,75.55
2022-11-26T10:00:58.465Z,75.60
2022-11-26T10:03:33.216Z,74.38
2022-11-26T10:06:00.811Z,73.40
2022-11-26T10:08:59.281Z,72.04
2022-11-26T10:11:49.257Z,71.58
2022-11-26T10:14:41.486Z,72.09
2022-11-26T10:17:46.881Z,72.95
2022-11-26T10:20:23.326Z,71.75
2022-11-26T10:22:57.729Z,71.81
2022-11-26T10:25:31.600Z,71.78
2022-11-26T10:28:00.175Z,70.45
2022-11-26T10:30:30.285Z,70.31
2022-11-26T10:33:02.435Z,70.71
2022-11-26T10:35:30.546Z,70.37
2022-11-26T10:37:58.439Z,69.18
2022-11-26T10:40:31.568Z,69.31
2022-11-26T10:43:11.183Z,69.21
2022-11-26T10:45:50.238Z,68.05
2022-11-26T10:48:28.067Z,66.07
2022-11-26T10:51:13.531Z,63.60
2022-11-26T10:53:53.092Z,63.76
2022-11-26T10:56:24.136Z,63.64
2022-11-26T10:58:53.280Z,62.77
2022-11-26T11:01:20.971Z,61.79
2022-11-26T11:04:08.712Z,59.66
2022-11-26T11:06:44.815Z,58.45
2022-11-26T11:09:27.495Z,54.97
2022-11-26T11:12:13.699Z,55.09
2022-11-26T11:14:43.419Z,51.98
2022-11-26T11:17:31.764Z,49.34
2022-11-26T11:20:25.756Z,48.02
2022-11-26T11:23:06.964Z,46.70
2022-11-26T11:25:37.055Z,45.96
2022-11-26T11:28:20.659Z,45.38
2022-11-26T11:30:59.148Z,43.20
2022-11-26T11:33:28.932Z,42.26
2022-11-26T11:36:19.290Z,42.20
2022-11-26T11:39:08.932Z,42.46
2022-11-26T11:41:46.484Z,42.17
2022-11-26T11:44:24.281Z,42.49
2022-11-26T11:47:10.974Z,43.17
2022-11-26T11:49:56.806Z,42.89
2022-11-26T11:52:54.160Z,42.29
2022-11-26T11:55:43.456Z,41.76
2022-11-26T11:58:38.545Z,42.49
2022-11-26T12:01:43.882Z,42.70
2022-11-26T12:04:23.500Z,42.21
2022-11-26T12:07:14.425Z,42.26
2022-11-26T12:09:56.223Z,42.23
2022-11-26T12:12:35.011Z,42.58
2022-11-26T12:15:25.872Z,42.66
2022-11-26T12:18:02.414Z,42.33
2022-11-26T12:20:39.193Z,42.04
2022-11-26T12:23:22.824Z,41.96
2022-11-26T12:25:57.182Z,41.61
2022-11-26T12:28:29.329Z,42.40
2022-11-26T12:31:05.872Z,42.44
2022-11-26T12:34:08.744Z,42.23
2022-11-26T12:36:45.704Z,42.37
2022-11-26T12:39:20.212Z,42.55
2022-11-26T12:41:55.600Z,42.09
2022-11-26T12:44:36.927Z,42.53
2022-11-26T12:51:16.724Z,42.40
2022-11-26T12:53:47.761Z,42.87
2022-11-26T12:56:47.504Z,43.20
2022-11-26T12:59:37.535Z,43.37
2022-11-26T13:02:36.789Z,43.06
2022-11-26T13:05:04.947Z,42.38
2022-11-26T13:07:58.032Z,42.58
2022-11-26T13:11:09.934Z,41.71
2022-11-26T13:13:49.792Z,42.47
2022-11-26T13:16:44.003Z,42.46
2022-11-26T13:19:20.860Z,42.03
2022-11-26T13:22:25.637Z,42.54
2022-11-26T13:25:08.916Z,42.61
2022-11-26T13:27:53.409Z,42.41
2022-11-26T13:30:41.285Z,42.12
2022-11-26T13:33:08.844Z,42.83
2022-11-26T13:35:59.684Z,42.79
2022-11-26T13:39:08.396Z,43.43
2022-11-26T13:41:59.030Z,43.23
2022-11-26T13:44:32.355Z,42.69
2022-11-26T13:47:14.100Z,43.13
2022-11-26T13:49:53.252Z,43.34
2022-11-26T13:52:34.998Z,43.62
2022-11-26T13:57:57.167Z,44.01
2022-11-26T14:00:29.561Z,43.90
2022-11-26T14:03:09.560Z,44.33
2022-11-26T14:06:08.172Z,44.40
2022-11-26T14:08:40.267Z,44.01
2022-11-26T14:11:10.095Z,44.17
2022-11-26T14:13:49.032Z,43.77
2022-11-26T14:16:24.582Z,43.88
2022-11-26T14:19:12.464Z,44.62
2022-11-26T14:22:11.176Z,45.28
2022-11-26T14:25:08.720Z,45.66
2022-11-26T14:28:00.123Z,45.94
2022-11-26T14:30:38.270Z,44.86
2022-11-26T14:33:19.264Z,45.61
2022-11-26T14:36:03.781Z,45.79
2022-11-26T14:38:39.337Z,46.34
2022-11-26T14:41:15.003Z,46.70
2022-11-26T14:43:47.905Z,47.17
2022-11-26T14:46:20.707Z,47.34
2022-11-26T14:49:10.570Z,48.37
2022-11-26T14:51:45.410Z,48.62
2022-11-26T14:54:35.303Z,48.88
2022-11-26T14:57:32.992Z,49.00
2022-11-26T15:00:29.582Z,49.71
2022-11-26T15:03:07.547Z,49.93
2022-11-26T15:05:42.055Z,49.83
2022-11-26T15:08:27.265Z,49.94
2022-11-26T15:11:02.044Z,50.10
2022-11-26T15:13:44.956Z,50.82
2022-11-26T15:16:38.114Z,51.38
2022-11-26T15:19:09.348Z,52.13
2022-11-26T15:21:47.228Z,52.22
2022-11-26T15:24:18.671Z,52.91
2022-11-26T15:26:50.664Z,54.17
2022-11-26T15:29:42.696Z,54.64
2022-11-26T15:32:30.337Z,54.00
2022-11-26T15:35:27.742Z,55.47
2022-11-26T15:37:57.712Z,56.11
2022-11-26T15:40:47.380Z,56.42
2022-11-26T15:43:39.139Z,57.88
2022-11-26T15:46:41.955Z,58.78
2022-11-26T15:49:27.940Z,58.67
2022-11-26T15:52:08.585Z,59.58
2022-11-26T15:55:11.882Z,60.21
2022-11-26T15:57:33.499Z,59.09
2022-11-26T16:00:37.059Z,58.38
2022-11-26T16:03:35.045Z,59.56
2022-11-26T16:06:13.489Z,60.70
2022-11-26T16:08:59.955Z,60.89
2022-11-26T16:11:40.627Z,61.15
2022-11-26T16:14:40.125Z,62.37
2022-11-26T16:17:30.729Z,63.60
2022-11-26T16:20:01.355Z,64.54
2022-11-26T16:22:38.016Z,64.78
2022-11-26T16:25:32.075Z,65.01
2022-11-26T16:28:18.245Z,66.18
2022-11-26T16:30:47.126Z,65.05
2022-11-26T16:33:27.836Z,65.76
2022-11-26T16:35:57.907Z,65.73
2022-11-26T16:38:27.389Z,66.04
2022-11-26T16:40:55.459Z,64.76
2022-11-26T16:43:23.116Z,61.82
2022-11-26T16:45:58.266Z,60.78
2022-11-26T16:48:28.110Z,60.87
2022-11-26T16:50:56.270Z,59.80
2022-11-26T16:53:23.821Z,59.75
2022-11-26T16:55:53.574Z,60.35
2022-11-26T16:58:33.628Z,59.89
2022-11-26T17:01:01.523Z,59.31
2022-11-26T17:03:33.051Z,58.99
2022-11-26T17:06:03.049Z,59.15
2022-11-26T17:08:30.920Z,59.27
2022-11-26T17:10:58.425Z,61.26
2022-11-26T17:13:28.847Z,61.83
2022-11-26T17:15:56.743Z,62.63
2022-11-26T17:18:25.572Z,63.60
2022-11-26T17:20:54.141Z,64.28
2022-11-26T17:23:21.686Z,64.85
2022-11-26T17:25:52.379Z,65.47
2022-11-26T17:28:21.272Z,64.95
2022-11-26T17:30:49.311Z,66.10
2022-11-26T17:33:16.838Z,65.57
2022-11-26T17:35:44.270Z,66.29
2022-11-26T17:38:17.452Z,66.40
2022-11-26T17:40:46.213Z,67.04
2022-11-26T17:43:14.435Z,66.83
2022-11-26T17:45:42.005Z,67.31
2022-11-26T17:48:24.261Z,67.56
2022-11-26T17:50:53.946Z,67.67
2022-11-26T17:53:21.547Z,67.63
2022-11-26T17:55:48.975Z,67.54
2022-11-26T17:58:16.401Z,68.40
2022-11-26T18:00:43.904Z,68.92
2022-11-26T18:03:11.311Z,69.37
2022-11-26T18:05:42.058Z,68.16
2022-11-26T18:08:09.873Z,67.94
2022-11-26T18:10:41.041Z,67.46
2022-11-26T18:13:08.466Z,67.57
2022-11-26T18:15:35.925Z,67.35
2022-11-26T18:18:04.486Z,68.62
2022-11-26T18:20:32.027Z,68.34
2022-11-26T18:23:00.594Z,68.19
2022-11-26T18:25:29.164Z,68.01
2022-11-26T18:27:56.595Z,68.59
2022-11-26T18:30:24.766Z,68.42
2022-11-26T18:32:52.429Z,68.66
2022-11-26T18:35:19.839Z,69.09
2022-11-26T18:37:47.243Z,69.23
2022-11-26T18:40:17.486Z,69.34
2022-11-26T18:42:45.229Z,69.45
2022-11-26T18:45:15.700Z,69.09
2022-11-26T18:47:43.755Z,69.38
2022-11-26T18:50:11.562Z,68.76
2022-11-26T18:52:39.828Z,69.25
2022-11-26T18:55:08.375Z,69.83
2022-11-26T18:57:36.485Z,70.17
2022-11-26T19:00:05.533Z,70.53
2022-11-26T19:02:35.524Z,70.39
2022-11-26T19:05:03.583Z,70.03
2022-11-26T19:07:32.751Z,70.28
2022-11-26T19:10:00.136Z,70.43
2022-11-26T19:12:27.516Z,70.43
2022-11-26T19:14:54.931Z,69.81
2022-11-26T19:17:22.302Z,70.31
2022-11-26T19:19:49.670Z,70.77
2022-11-26T19:22:17.091Z,70.74
2022-11-26T19:24:44.499Z,71.44
2022-11-26T19:27:13.348Z,71.86
2022-11-26T19:29:40.902Z,71.77
2022-11-26T19:32:08.539Z,71.54
2022-11-26T19:34:35.974Z,71.44
2022-11-26T19:37:03.386Z,71.19
2022-11-26T19:39:31.539Z,71.31
2022-11-26T19:41:59.917Z,71.23
2022-11-26T19:44:27.317Z,71.10
2022-11-26T19:46:54.719Z,71.80
2022-11-26T19:49:22.956Z,71.98
2022-11-26T19:51:50.364Z,71.62
2022-11-26T19:54:17.774Z,72.07
2022-11-26T19:56:46.047Z,71.61
2022-11-26T19:59:13.804Z,71.46
2022-11-26T20:01:41.608Z,71.85
2022-11-26T20:04:14.012Z,71.60
2022-11-26T20:06:41.852Z,71.64
2022-11-26T20:09:12.248Z,71.64
2022-11-26T20:11:41.101Z,71.57
2022-11-26T20:14:10.656Z,70.89
2022-11-26T20:16:39.977Z,70.53
2022-11-26T20:19:07.610Z,70.71
2022-11-26T20:21:35.455Z,71.04
2022-11-26T20:24:07.902Z,71.86
2022-11-26T20:26:38.066Z,71.49
2022-11-26T20:29:10.636Z,71.98
2022-11-26T20:31:45.813Z,71.07
2022-11-26T20:34:14.636Z,70.67
2022-11-26T20:36:42.543Z,70.12
2022-11-26T20:39:15.227Z,70.26
2022-11-26T20:42:01.058Z,70.40
2022-11-26T20:44:28.675Z,70.48
2022-11-26T20:46:57.040Z,70.94
2022-11-26T20:49:25.887Z,71.08
2022-11-26T20:51:54.818Z,71.00
2022-11-26T20:54:22.219Z,70.77
2022-11-26T20:56:49.691Z,71.18
2022-11-26T20:59:17.190Z,71.00
2022-11-26T21:01:44.581Z,70.84
2022-11-26T21:04:11.996Z,70.56
2022-11-26T21:06:42.751Z,70.35
2022-11-26T21:09:12.614Z,71.19
2022-11-26T21:11:41.546Z,71.26
2022-11-26T21:14:14.655Z,70.87
2022-11-26T21:16:42.709Z,70.68
2022-11-26T21:19:12.355Z,70.43
2022-11-26T21:21:40.063Z,69.97
2022-11-26T21:24:08.135Z,69.96
2022-11-26T21:26:35.555Z,69.88
2022-11-26T21:29:03.455Z,70.16
2022-11-26T21:31:32.038Z,69.70
2022-11-26T21:34:02.645Z,70.18
2022-11-26T21:36:34.867Z,69.98
2022-11-26T21:39:02.882Z,70.29
2022-11-26T21:41:33.500Z,70.18
2022-11-26T21:44:04.206Z,69.96
2022-11-26T21:46:37.981Z,69.69
2022-11-26T21:49:07.137Z,69.37
2022-11-26T21:51:34.555Z,69.65
2022-11-26T21:54:02.199Z,69.55
2022-11-26T21:56:31.628Z,69.79
2022-11-26T21:59:00.599Z,69.74
2022-11-26T22:01:30.708Z,70.44
2022-11-26T22:04:00.941Z,70.02
2022-11-26T22:06:28.482Z,69.93
2022-11-26T22:08:56.427Z,69.88
2022-11-26T22:11:30.041Z,69.97
2022-11-26T22:13:57.646Z,70.18
2022-11-26T22:16:27.309Z,70.64
2022-11-26T22:18:56.453Z,70.66
2022-11-26T22:21:26.273Z,70.72
2022-11-26T22:23:53.728Z,71.07
2022-11-26T22:26:21.758Z,71.06
2022-11-26T22:28:50.313Z,71.37
2022-11-26T22:31:19.595Z,71.56
2022-11-26T22:33:47.253Z,71.68
2022-11-26T22:36:15.077Z,71.65
2022-11-26T22:38:42.608Z,71.89
2022-11-26T22:41:13.003Z,72.02
2022-11-26T22:43:41.434Z,71.89
2022-11-26T22:46:18.317Z,71.72
2022-11-26T22:48:55.884Z,71.50
2022-11-26T22:51:25.868Z,71.67
2022-11-26T22:53:59.282Z,71.93
2022-11-26T22:56:27.231Z,71.83
2022-11-26T22:58:55.203Z,71.94
2022-11-26T23:01:25.817Z,72.82
2022-11-26T23:03:54.418Z,72.52
2022-11-26T23:06:23.983Z,72.71
2022-11-26T23:08:51.947Z,72.83
2022-11-26T23:11:31.844Z,73.02
2022-11-26T23:13:59.402Z,73.53
2022-11-26T23:16:27.446Z,73.96
2022-11-26T23:18:56.877Z,74.13
2022-11-26T23:21:27.668Z,73.99
2022-11-26T23:23:55.531Z,74.32
2022-11-26T23:26:28.934Z,73.62
2022-11-26T23:28:58.529Z,73.53
2022-11-26T23:31:29.252Z,73.40
2022-11-26T23:33:56.920Z,73.53
2022-11-26T23:36:26.213Z,73.58
2022-11-26T23:38:54.409Z,73.86
2022-11-26T23:41:22.036Z,73.56
2022-11-26T23:43:49.557Z,73.45
2022-11-26T23:46:20.422Z,73.43
2022-11-26T23:49:22.135Z,73.41
2022-11-26T23:51:49.640Z,73.54
2022-11-26T23:54:17.186Z,73.28
2022-11-26T23:56:44.709Z,73.39
2022-11-26T23:59:12.516Z,73.16
